الصفحة الرئيسية
METAR-TAF:

METAR-TAF

مطار :

مطار يو تاباو الدولي

باتايا-Rayong, تايلاند

دائرة عرض: 12-38N, خط طول: 101-21E, ارتفاع: 3 متر

مراقبة الطقس الحالي

تاريخ ووقت الإصدار 30 دقيقة قبل الساعة 05:30UTC
ريح 10 عقدة من الجنوب/الجنوب الشرقي
درجة الحرارة 32°درجة مئوية
الرطوبة 67%
ضغط 1011 hPa
الرؤية 10 كم أو أكثر
غيوم قليلة على ارتفاع 2000 قدم

METAR: VTBU 310530Z 16010KT 9999 FEW020 32/25 Q1011 NOSIG

زمن: 13:00 (06:00 UTC)

توقعات

تاريخ ووقت الإصدار 1ساعة و 0 دقيقة قبل الساعة 05:00UTC
التوقعات صالحة من31 الساعة 06 UTC إلى 01 الساعة 06 UTC
ريح 10 عقدة من الجنوب
الرؤية 10 كم أو أكثر
غيوم قليلة على ارتفاع 2000 قدم

TAF: VTBU 310500Z 3106/0106 18010KT 9999 FEW020

أرصاد الطقس والتوقعات من أكثر من 4000 مطار (تقارير الطقس للمطار METAR والتنبؤ بالطقس بالمطارTAF).

المحطات المتاحة هي النقط الصفراء والحمراء على الخريطة.

حرك المؤشر فوق النقطة لمعرفة اسم المحطة.

ثم انقر لمعرفة أرصاد وتوقعات الطقس.

لتغيير الخارطة: اضغط على الأزرار الخضراء مع رمز الصليب الأسود للتكبير. على الزر الأخضر مع شرطة للتصغير، أو على الأسهم الخضراء للخرائط المجاورة.


METAR-TAF: